createdAt,value
2023-03-27T04:07:36.248Z,99454.22
2023-03-27T04:13:57.036Z,99466.88
2023-03-27T04:20:09.617Z,99460.88
2023-03-27T04:26:13.236Z,99452.00
2023-03-27T04:32:34.842Z,99464.03
2023-03-27T04:38:55.761Z,99449.75
2023-03-27T04:45:02.172Z,99446.84
2023-03-27T04:51:06.434Z,99430.09
2023-03-27T04:57:11.567Z,99420.16
2023-03-27T05:03:14.818Z,99397.53
2023-03-27T05:09:33.267Z,99392.63
2023-03-27T05:15:36.804Z,99378.88
2023-03-27T05:21:43.361Z,99380.31
2023-03-27T05:27:51.527Z,99371.59
2023-03-27T05:33:55.031Z,99355.63
2023-03-27T05:39:57.670Z,99362.41
2023-03-27T05:46:00.477Z,99350.31
2023-03-27T05:52:05.895Z,99340.84
2023-03-27T05:58:10.280Z,99326.19
2023-03-27T06:04:13.122Z,99304.50
2023-03-27T06:10:34.042Z,99298.09
2023-03-27T06:16:59.595Z,99286.28
2023-03-27T06:23:19.506Z,99284.63
2023-03-27T06:29:22.680Z,99268.53
2023-03-27T06:35:29.281Z,99255.78
2023-03-27T06:41:51.617Z,99239.06
2023-03-27T06:48:15.989Z,99236.06
2023-03-27T06:54:40.886Z,99208.88
2023-03-27T07:00:49.672Z,99192.22
2023-03-27T07:06:59.503Z,99172.66
2023-03-27T07:13:17.787Z,99166.91
2023-03-27T07:19:24.265Z,99151.03
2023-03-27T07:25:40.888Z,99155.91
2023-03-27T07:38:07.156Z,99121.88
2023-03-27T07:44:12.570Z,99126.16
2023-03-27T07:50:28.016Z,99121.28
2023-03-27T07:56:34.553Z,99120.09
2023-03-27T08:03:11.964Z,99109.03
2023-03-27T08:09:20.544Z,99100.41
2023-03-27T08:15:25.613Z,99091.78
2023-03-27T08:21:35.884Z,99083.41
2023-03-27T08:27:39.288Z,99072.72
2023-03-27T08:33:43.824Z,99057.81
2023-03-27T08:39:55.708Z,99032.84
2023-03-27T08:46:06.502Z,99011.56
2023-03-27T08:52:17.023Z,99001.50
2023-03-27T08:58:25.155Z,98965.75
2023-03-27T09:04:53.023Z,98964.00
2023-03-27T09:11:25.365Z,98971.56
2023-03-27T09:17:42.983Z,98972.72
2023-03-27T09:23:55.544Z,98961.81
2023-03-27T09:30:48.678Z,98950.88
2023-03-27T09:37:03.777Z,98929.91
2023-03-27T09:43:33.030Z,98925.72
2023-03-27T09:49:53.174Z,98920.31
2023-03-27T09:56:14.905Z,98906.97
2023-03-27T10:02:31.010Z,98893.00
2023-03-27T10:08:42.778Z,98884.00
2023-03-27T10:15:27.508Z,98867.75
2023-03-27T10:21:46.357Z,98850.66
2023-03-27T10:28:29.539Z,98844.41
2023-03-27T10:34:59.826Z,98824.22
2023-03-27T10:41:48.985Z,98819.97
2023-03-27T10:47:57.754Z,98799.34
2023-03-27T10:54:18.200Z,98786.88
2023-03-27T11:00:38.544Z,98781.06
2023-03-27T11:06:56.515Z,98767.06
2023-03-27T11:20:26.401Z,98746.88
2023-03-27T11:27:37.181Z,98717.41
2023-03-27T11:34:08.137Z,98710.16
2023-03-27T11:47:11.482Z,98681.41
2023-03-27T11:53:25.124Z,98678.00
2023-03-27T12:00:26.827Z,98677.31
2023-03-27T12:07:05.173Z,98665.50
2023-03-27T12:14:01.640Z,98669.47
2023-03-27T12:21:20.047Z,98663.34
2023-03-27T12:34:58.062Z,98674.75
2023-03-27T12:41:42.058Z,98671.13
2023-03-27T12:48:29.641Z,98658.81
2023-03-27T12:54:39.613Z,98662.28
2023-03-27T13:02:02.491Z,98662.31
2023-03-27T13:08:40.664Z,98656.25
2023-03-27T13:15:30.664Z,98659.19
2023-03-27T13:22:25.004Z,98658.72
2023-03-27T13:28:40.777Z,98669.00
2023-03-27T13:35:21.617Z,98670.50
2023-03-27T13:41:49.261Z,98688.00
2023-03-27T13:48:26.667Z,98746.88
2023-03-27T13:54:45.348Z,98796.44
2023-03-27T14:00:53.047Z,98790.47
2023-03-27T14:07:21.338Z,98820.66
2023-03-27T14:13:48.852Z,98817.75
2023-03-27T14:20:14.604Z,98814.91
2023-03-27T14:26:45.329Z,98815.66
2023-03-27T14:32:59.203Z,98801.09
2023-03-27T14:39:24.727Z,98802.16
2023-03-27T14:46:04.708Z,98792.47
2023-03-27T14:52:23.247Z,98755.19
2023-03-27T14:59:02.710Z,98720.63
2023-03-27T15:05:28.712Z,98710.44
2023-03-27T15:11:40.309Z,98682.44
2023-03-27T15:18:34.600Z,98691.81
2023-03-27T15:24:50.270Z,98690.31
2023-03-27T15:30:55.896Z,98680.31
2023-03-27T15:37:10.396Z,98667.09
2023-03-27T15:43:15.864Z,98667.41
2023-03-27T15:49:41.360Z,98664.56
2023-03-27T15:55:55.741Z,98662.94
2023-03-27T16:02:09.920Z,98662.28
2023-03-27T16:08:13.784Z,98672.63
2023-03-27T16:14:28.477Z,98686.84
2023-03-27T16:20:40.312Z,98698.16
2023-03-27T16:26:46.056Z,98697.88
2023-03-27T16:32:52.767Z,98696.91
2023-03-27T16:39:01.879Z,98701.41
2023-03-27T16:45:06.383Z,98706.63
2023-03-27T16:51:10.144Z,98699.38
2023-03-27T16:57:42.041Z,98710.84
2023-03-27T17:10:14.799Z,98715.63
2023-03-27T17:16:38.154Z,98706.59
2023-03-27T17:22:55.955Z,98720.88
2023-03-27T17:29:01.064Z,98725.69
2023-03-27T17:35:06.147Z,98730.81
2023-03-27T17:41:12.621Z,98731.44
2023-03-27T17:47:21.975Z,98731.59
2023-03-27T17:53:26.600Z,98731.47
2023-03-27T17:59:35.259Z,98728.84
2023-03-27T18:05:45.994Z,98723.16
2023-03-27T18:11:51.476Z,98740.63
2023-03-27T18:17:55.667Z,98748.22
2023-03-27T18:23:59.816Z,98755.16
2023-03-27T18:30:03.848Z,98749.53
2023-03-27T18:36:11.069Z,98740.31
2023-03-27T18:42:14.857Z,98744.19
2023-03-27T18:48:21.648Z,98752.34
2023-03-27T18:54:26.491Z,98761.34
2023-03-27T19:00:30.134Z,98764.69
2023-03-27T19:06:35.205Z,98769.84
2023-03-27T19:12:37.497Z,98763.22
2023-03-27T19:19:04.096Z,98762.31
2023-03-27T19:25:28.428Z,98765.22
2023-03-27T19:31:38.275Z,98761.47
2023-03-27T19:37:41.995Z,98751.50
2023-03-27T19:43:56.775Z,98744.50
2023-03-27T19:50:02.478Z,98732.47
2023-03-27T19:56:12.174Z,98725.50
2023-03-27T20:02:18.712Z,98722.47
2023-03-27T20:08:25.205Z,98723.31
2023-03-27T20:14:28.505Z,98714.72
2023-03-27T20:20:30.837Z,98713.69
2023-03-27T20:26:40.901Z,98706.53
2023-03-27T20:32:52.524Z,98703.91
2023-03-27T20:38:56.855Z,98702.19
2023-03-27T20:45:02.373Z,98698.19
2023-03-27T20:51:18.030Z,98699.44
2023-03-27T20:57:22.462Z,98697.03
2023-03-27T21:03:29.382Z,98715.25
2023-03-27T21:09:36.291Z,98699.56
2023-03-27T21:15:39.879Z,98698.53
2023-03-27T21:21:53.273Z,98690.31
2023-03-27T21:28:02.075Z,98701.22
2023-03-27T21:34:06.596Z,98706.50
2023-03-27T21:40:17.202Z,98718.56
2023-03-27T21:46:22.071Z,98729.44
2023-03-27T21:52:29.373Z,98704.19
2023-03-27T21:58:32.243Z,98720.75
2023-03-27T22:04:35.166Z,98715.91
2023-03-27T22:10:37.840Z,98709.47
2023-03-27T22:16:41.541Z,98706.53
2023-03-27T22:22:44.262Z,98706.72
2023-03-27T22:28:47.416Z,98700.13
2023-03-27T22:34:51.082Z,98694.44
2023-03-27T22:40:54.626Z,98687.97
2023-03-27T22:46:58.605Z,98694.81
2023-03-27T22:53:01.040Z,98692.13
2023-03-27T22:59:05.904Z,98711.53
2023-03-27T23:05:11.124Z,98722.28
2023-03-27T23:11:16.283Z,98719.34
2023-03-27T23:17:21.240Z,98724.59
2023-03-27T23:23:25.194Z,98719.50
2023-03-27T23:29:29.806Z,98717.28
2023-03-27T23:35:33.898Z,98724.09
2023-03-27T23:41:36.896Z,98716.59
2023-03-27T23:47:39.444Z,98737.88
2023-03-27T23:53:42.933Z,98709.97
2023-03-27T23:59:49.265Z,98730.47
